Time;durP1;ratioP1;P1;durP2;ratioP2;P2;SDS_P1;SDS_P2;PMS_P1;PMS_P2;Temp;Humidity;BMP_temperature;BMP_pressure;BME280_temperature;BME280_humidity;BME280_pressure;Samples;Min_cycle;Max_cycle;Signal;HPM_P1;HPM_P2
2021/10/01 00:02:04;;;;;;;4.82;3.00;;;;;;;;;;4987188;28;20787;-37
2021/10/01 00:04:29;;;;;;;4.57;2.33;;;;;;;;;;4990400;28;20436;-39
2021/10/01 00:06:55;;;;;;;3.97;2.38;;;;;;;;;;4989977;28;20053;-38
2021/10/01 00:09:20;;;;;;;4.47;2.50;;;;;;;;;;4984358;28;20508;-37
2021/10/01 00:11:52;;;;;;;6.50;2.83;;;;;;;;;;4982962;28;20832;-37
2021/10/01 00:14:21;;;;;;;4.75;2.78;;;;;;;;;;4976934;28;20033;-37
2021/10/01 00:16:47;;;;;;;4.85;2.97;;;;;;;;;;4988477;28;20030;-37
2021/10/01 00:19:13;;;;;;;7.65;2.65;;;;;;;;;;4981182;28;20086;-40
2021/10/01 00:21:39;;;;;;;2.80;2.33;;;;;;;;;;4981314;28;20033;-38
2021/10/01 00:24:07;;;;;;;3.85;2.75;;;;;;;;;;4985550;28;20030;-37
2021/10/01 00:26:33;;;;;;;4.43;2.65;;;;;;;;;;4983003;28;20155;-37
2021/10/01 00:28:58;;;;;;;6.00;2.75;;;;;;;;;;4984589;28;20109;-41
2021/10/01 00:31:23;;;;;;;8.52;3.28;;;;;;;;;;4984384;28;20034;-39
2021/10/01 00:33:49;;;;;;;3.88;2.40;;;;;;;;;;4982821;28;20025;-38
2021/10/01 00:36:14;;;;;;;4.97;2.40;;;;;;;;;;4988184;28;20034;-39
2021/10/01 00:38:39;;;;;;;4.32;2.10;;;;;;;;;;4983855;28;20052;-41
2021/10/01 00:41:05;;;;;;;5.25;3.10;;;;;;;;;;4989667;28;20057;-38
2021/10/01 00:43:30;;;;;;;5.68;2.70;;;;;;;;;;4991459;28;20054;-38
2021/10/01 00:45:55;;;;;;;8.32;3.85;;;;;;;;;;4992230;28;20035;-37
2021/10/01 00:48:20;;;;;;;5.38;2.45;;;;;;;;;;4988345;28;20007;-37
2021/10/01 00:50:46;;;;;;;8.55;2.78;;;;;;;;;;4987630;28;20030;-37
2021/10/01 00:53:11;;;;;;;4.93;2.95;;;;;;;;;;4990348;28;20093;-38
2021/10/01 00:55:37;;;;;;;7.07;4.00;;;;;;;;;;4989889;28;20471;-37
2021/10/01 00:58:02;;;;;;;5.18;1.90;;;;;;;;;;4986875;28;20558;-38
2021/10/01 01:00:27;;;;;;;2.55;2.30;;;;;;;;;;4987682;28;20054;-37
2021/10/01 01:02:58;;;;;;;6.93;3.53;;;;;;;;;;4987595;28;20110;-37
2021/10/01 01:05:35;;;;;;;11.38;3.17;;;;;;;;;;4982294;28;20042;-38
2021/10/01 01:08:02;;;;;;;5.93;3.67;;;;;;;;;;4985728;28;20072;-38
2021/10/01 01:10:52;;;;;;;7.95;2.90;;;;;;;;;;4983432;28;20022;-36
2021/10/01 01:13:24;;;;;;;4.90;3.35;;;;;;;;;;4990037;28;20029;-36
2021/10/01 01:15:52;;;;;;;7.20;4.20;;;;;;;;;;4989281;28;20040;-36
2021/10/01 01:18:21;;;;;;;5.72;4.28;;;;;;;;;;4988105;28;20113;-36
2021/10/01 01:20:51;;;;;;;4.90;3.50;;;;;;;;;;4983155;28;20065;-36
2021/10/01 01:23:29;;;;;;;3.47;2.55;;;;;;;;;;4986646;28;20489;-37
2021/10/01 01:25:54;;;;;;;7.85;2.65;;;;;;;;;;4990611;28;20026;-37
2021/10/01 01:28:22;;;;;;;9.35;4.10;;;;;;;;;;4985474;28;20729;-37
2021/10/01 01:30:49;;;;;;;4.72;2.75;;;;;;;;;;4998729;28;20804;-37
2021/10/01 01:33:16;;;;;;;8.00;3.13;;;;;;;;;;4985798;28;20030;-37
2021/10/01 01:35:42;;;;;;;5.35;2.65;;;;;;;;;;4984645;28;20041;-37
2021/10/01 01:38:13;;;;;;;6.03;3.40;;;;;;;;;;4987084;28;20097;-36
2021/10/01 01:40:40;;;;;;;7.82;2.92;;;;;;;;;;4991711;28;20061;-37
2021/10/01 01:43:08;;;;;;;4.07;2.72;;;;;;;;;;4983137;28;20133;-37
2021/10/01 01:45:36;;;;;;;6.90;3.22;;;;;;;;;;4988708;28;20061;-37
2021/10/01 01:48:03;;;;;;;5.30;2.90;;;;;;;;;;4984730;28;20054;-37
2021/10/01 01:50:28;;;;;;;3.65;2.30;;;;;;;;;;4987842;28;20029;-46
2021/10/01 01:52:54;;;;;;;4.80;2.63;;;;;;;;;;4986979;28;20031;-36
2021/10/01 01:55:21;;;;;;;4.93;3.05;;;;;;;;;;4983153;28;20032;-35
2021/10/01 01:57:49;;;;;;;3.53;2.45;;;;;;;;;;4989242;28;20091;-35
2021/10/01 02:00:15;;;;;;;3.63;1.75;;;;;;;;;;4986495;28;20038;-35
2021/10/01 02:02:40;;;;;;;5.88;2.90;;;;;;;;;;4982423;28;20099;-35
2021/10/01 02:05:06;;;;;;;4.07;2.22;;;;;;;;;;4986381;28;20372;-35
2021/10/01 02:07:32;;;;;;;4.55;2.58;;;;;;;;;;4984361;28;20018;-35
2021/10/01 02:09:58;;;;;;;5.72;3.78;;;;;;;;;;4981688;28;20138;-35
2021/10/01 02:12:25;;;;;;;13.00;2.13;;;;;;;;;;4974209;28;20419;-35
2021/10/01 02:14:52;;;;;;;4.18;2.33;;;;;;;;;;4989988;28;20064;-36
2021/10/01 02:17:19;;;;;;;8.82;3.20;;;;;;;;;;4987333;28;20058;-35
2021/10/01 02:19:46;;;;;;;7.43;3.10;;;;;;;;;;4988569;28;20098;-35
2021/10/01 02:22:13;;;;;;;4.15;2.83;;;;;;;;;;4986098;28;20103;-35
2021/10/01 02:24:38;;;;;;;4.72;4.03;;;;;;;;;;4986767;28;20033;-35
2021/10/01 02:27:36;;;;;;;6.13;4.25;;;;;;;;;;4984025;28;20025;-35
2021/10/01 02:30:07;;;;;;;3.53;2.88;;;;;;;;;;5029155;28;20041;-35
2021/10/01 02:32:42;;;;;;;8.77;2.78;;;;;;;;;;4987821;28;20242;-35
2021/10/01 02:35:08;;;;;;;6.43;3.90;;;;;;;;;;4987424;28;20064;-35
2021/10/01 02:37:33;;;;;;;3.90;2.28;;;;;;;;;;4983051;28;20046;-35
2021/10/01 02:40:00;;;;;;;6.00;4.55;;;;;;;;;;4982740;28;20030;-35
2021/10/01 02:42:26;;;;;;;6.80;4.60;;;;;;;;;;4987313;28;20040;-35
2021/10/01 02:44:52;;;;;;;7.22;4.07;;;;;;;;;;4985536;28;20082;-35
2021/10/01 02:47:18;;;;;;;5.90;3.47;;;;;;;;;;4980249;28;20117;-35
2021/10/01 02:49:44;;;;;;;7.55;3.50;;;;;;;;;;4978488;28;20787;-35
2021/10/01 02:52:28;;;;;;;8.80;3.53;;;;;;;;;;4983404;28;20026;-35
2021/10/01 02:55:14;;;;;;;11.80;4.65;;;;;;;;;;4985841;28;20068;-35
2021/10/01 02:57:40;;;;;;;5.13;2.78;;;;;;;;;;4982643;28;20552;-36
2021/10/01 03:00:06;;;;;;;7.05;3.88;;;;;;;;;;4976056;28;20029;-36
2021/10/01 03:02:32;;;;;;;5.90;3.33;;;;;;;;;;4982474;28;20107;-35
2021/10/01 03:04:58;;;;;;;6.45;3.63;;;;;;;;;;4988530;28;20086;-35
2021/10/01 03:07:26;;;;;;;6.90;4.35;;;;;;;;;;4988319;28;20026;-35
2021/10/01 03:09:52;;;;;;;8.95;3.15;;;;;;;;;;4988988;28;20032;-35
2021/10/01 03:12:19;;;;;;;7.20;3.47;;;;;;;;;;4983043;28;20106;-36
2021/10/01 03:14:45;;;;;;;4.75;3.78;;;;;;;;;;4988687;28;20030;-35
2021/10/01 03:17:11;;;;;;;4.55;3.72;;;;;;;;;;4988298;28;20032;-35
2021/10/01 03:19:37;;;;;;;6.28;3.78;;;;;;;;;;4984679;28;20088;-35
2021/10/01 03:22:02;;;;;;;6.35;4.50;;;;;;;;;;4980619;28;20498;-35
2021/10/01 03:24:28;;;;;;;7.15;3.90;;;;;;;;;;4983257;28;20401;-35
2021/10/01 03:26:54;;;;;;;9.43;5.80;;;;;;;;;;4992490;28;20079;-36
2021/10/01 03:29:19;;;;;;;8.00;4.72;;;;;;;;;;4987725;28;20064;-36
2021/10/01 03:31:45;;;;;;;9.50;5.22;;;;;;;;;;4988703;28;20022;-35
2021/10/01 03:34:10;;;;;;;11.52;4.57;;;;;;;;;;4981229;28;20478;-36
2021/10/01 03:36:36;;;;;;;5.97;4.35;;;;;;;;;;4984441;28;20026;-36
2021/10/01 03:39:02;;;;;;;6.68;3.38;;;;;;;;;;4989865;28;20062;-35
2021/10/01 03:41:27;;;;;;;4.00;3.15;;;;;;;;;;4982471;28;20104;-35
2021/10/01 03:43:53;;;;;;;6.63;3.55;;;;;;;;;;4984466;28;20078;-35
2021/10/01 03:46:18;;;;;;;4.68;3.92;;;;;;;;;;4981684;28;20022;-35
2021/10/01 03:48:44;;;;;;;5.22;3.40;;;;;;;;;;4983008;28;20023;-35
2021/10/01 03:51:09;;;;;;;6.38;4.55;;;;;;;;;;4986400;28;20023;-35
2021/10/01 03:53:35;;;;;;;8.38;4.15;;;;;;;;;;4987794;28;20029;-36
2021/10/01 03:56:00;;;;;;;7.38;3.08;;;;;;;;;;4991789;28;20017;-36
2021/10/01 03:58:26;;;;;;;6.15;3.95;;;;;;;;;;4985794;28;20115;-37
2021/10/01 04:00:51;;;;;;;7.80;3.88;;;;;;;;;;4983535;28;20554;-35
2021/10/01 04:03:16;;;;;;;5.80;4.25;;;;;;;;;;4985748;28;20104;-35
2021/10/01 04:05:42;;;;;;;10.48;4.05;;;;;;;;;;4986314;28;20154;-37
2021/10/01 04:08:08;;;;;;;6.75;3.50;;;;;;;;;;4983622;28;20029;-36
2021/10/01 04:10:34;;;;;;;10.85;4.80;;;;;;;;;;4987595;28;20040;-35
2021/10/01 04:12:59;;;;;;;4.28;3.85;;;;;;;;;;4985109;28;20022;-36
2021/10/01 04:15:24;;;;;;;9.82;3.40;;;;;;;;;;4987339;28;20700;-35
2021/10/01 04:17:50;;;;;;;4.07;3.65;;;;;;;;;;4985024;28;20483;-36
2021/10/01 04:20:15;;;;;;;9.88;3.00;;;;;;;;;;4988360;28;20029;-36
2021/10/01 04:22:40;;;;;;;7.60;4.40;;;;;;;;;;4987579;28;20502;-37
2021/10/01 04:25:06;;;;;;;7.10;3.78;;;;;;;;;;4988970;28;20431;-36
2021/10/01 04:27:31;;;;;;;6.95;4.85;;;;;;;;;;4986748;28;20372;-36
2021/10/01 04:29:59;;;;;;;7.82;4.38;;;;;;;;;;4987687;28;20469;-37
2021/10/01 04:32:24;;;;;;;7.07;2.88;;;;;;;;;;4989437;28;20034;-36
2021/10/01 04:35:08;;;;;;;5.72;4.22;;;;;;;;;;4983236;28;20049;-37
2021/10/01 04:37:33;;;;;;;8.30;3.63;;;;;;;;;;4985841;28;20141;-37
2021/10/01 04:39:59;;;;;;;5.15;3.53;;;;;;;;;;4987614;28;20026;-36
2021/10/01 04:42:24;;;;;;;8.02;5.05;;;;;;;;;;4985663;28;20018;-36
2021/10/01 04:44:50;;;;;;;6.03;3.10;;;;;;;;;;4988685;28;20536;-36
2021/10/01 04:47:16;;;;;;;8.60;3.33;;;;;;;;;;4989095;28;20030;-36
2021/10/01 04:49:41;;;;;;;8.73;4.07;;;;;;;;;;4985557;28;20467;-36
2021/10/01 04:52:07;;;;;;;6.95;3.90;;;;;;;;;;4984180;28;20083;-37
2021/10/01 04:54:32;;;;;;;5.53;3.70;;;;;;;;;;4990138;28;20030;-37
2021/10/01 04:56:57;;;;;;;6.53;3.70;;;;;;;;;;4991554;28;20030;-37
2021/10/01 04:59:23;;;;;;;8.35;4.78;;;;;;;;;;4988155;28;20065;-36
2021/10/01 05:01:48;;;;;;;14.13;5.15;;;;;;;;;;4991442;28;20025;-36
2021/10/01 05:04:13;;;;;;;5.55;3.97;;;;;;;;;;4985126;28;20042;-37
2021/10/01 05:06:41;;;;;;;7.18;3.30;;;;;;;;;;4985660;28;20075;-36
2021/10/01 05:09:06;;;;;;;4.20;3.53;;;;;;;;;;4986894;28;20042;-39
2021/10/01 05:11:31;;;;;;;6.35;3.33;;;;;;;;;;4985628;28;20108;-37
2021/10/01 05:13:57;;;;;;;7.07;3.03;;;;;;;;;;4984490;28;20110;-37
2021/10/01 05:16:22;;;;;;;3.92;3.17;;;;;;;;;;4983918;28;20022;-42
2021/10/01 05:18:47;;;;;;;5.18;3.47;;;;;;;;;;4985441;28;20053;-41
2021/10/01 05:21:13;;;;;;;3.80;2.75;;;;;;;;;;4985148;28;20034;-42
2021/10/01 05:23:38;;;;;;;4.22;3.78;;;;;;;;;;4987048;28;20017;-39
2021/10/01 05:26:04;;;;;;;7.88;5.13;;;;;;;;;;4989016;28;20026;-36
2021/10/01 05:28:29;;;;;;;10.27;5.72;;;;;;;;;;4986853;28;20022;-40
2021/10/01 05:30:55;;;;;;;6.28;4.45;;;;;;;;;;4989433;28;20805;-39
2021/10/01 05:33:20;;;;;;;4.78;3.63;;;;;;;;;;4989038;28;20030;-36
2021/10/01 05:35:46;;;;;;;5.15;3.72;;;;;;;;;;4988800;28;20645;-38
2021/10/01 05:38:12;;;;;;;9.48;7.35;;;;;;;;;;4986683;28;20041;-39
2021/10/01 05:40:38;;;;;;;12.52;8.15;;;;;;;;;;4982813;28;20105;-39
2021/10/01 05:43:04;;;;;;;13.70;10.27;;;;;;;;;;4983397;28;20683;-38
2021/10/01 05:45:29;;;;;;;12.55;9.70;;;;;;;;;;4983616;28;20032;-38
2021/10/01 05:47:55;;;;;;;13.30;7.38;;;;;;;;;;4982399;28;20101;-38
2021/10/01 05:50:22;;;;;;;11.02;8.20;;;;;;;;;;4985013;28;20641;-39
2021/10/01 05:52:55;;;;;;;7.10;5.15;;;;;;;;;;4987995;28;20103;-39
2021/10/01 05:55:21;;;;;;;9.07;6.55;;;;;;;;;;4985505;28;20029;-41
2021/10/01 05:57:46;;;;;;;6.47;4.57;;;;;;;;;;4984321;28;20034;-38
2021/10/01 06:00:12;;;;;;;10.23;5.63;;;;;;;;;;4983765;28;20576;-38
2021/10/01 06:02:37;;;;;;;6.05;5.22;;;;;;;;;;4982675;28;20523;-40
2021/10/01 06:05:02;;;;;;;17.50;6.95;;;;;;;;;;4986618;28;20026;-37
2021/10/01 06:07:28;;;;;;;6.40;4.97;;;;;;;;;;4982652;28;20483;-41
2021/10/01 06:09:53;;;;;;;9.50;4.65;;;;;;;;;;4991772;28;20403;-40
2021/10/01 06:12:18;;;;;;;6.60;5.85;;;;;;;;;;4989901;28;20151;-37
2021/10/01 06:14:44;;;;;;;8.07;5.65;;;;;;;;;;4985780;28;20173;-41
2021/10/01 06:17:10;;;;;;;21.98;9.35;;;;;;;;;;4982208;28;20026;-37
2021/10/01 06:19:37;;;;;;;9.07;6.90;;;;;;;;;;4986825;28;20540;-40
2021/10/01 06:22:03;;;;;;;10.88;8.35;;;;;;;;;;4983827;28;20087;-38
2021/10/01 06:24:29;;;;;;;18.40;9.43;;;;;;;;;;4982917;28;20026;-39
2021/10/01 06:26:54;;;;;;;12.82;8.93;;;;;;;;;;4980295;28;20037;-39
2021/10/01 06:29:20;;;;;;;19.10;11.20;;;;;;;;;;4984808;28;20088;-40
2021/10/01 06:31:45;;;;;;;14.75;11.10;;;;;;;;;;4991209;28;20026;-39
2021/10/01 06:34:11;;;;;;;8.10;6.82;;;;;;;;;;4983576;28;20497;-37
2021/10/01 06:36:37;;;;;;;7.35;6.10;;;;;;;;;;4983446;28;20031;-40
2021/10/01 06:39:03;;;;;;;11.95;5.15;;;;;;;;;;4976845;28;20041;-36
2021/10/01 06:41:29;;;;;;;23.65;20.42;;;;;;;;;;4984300;28;20649;-37
2021/10/01 06:43:59;;;;;;;14.30;8.70;;;;;;;;;;4986309;28;20073;-39
2021/10/01 08:20:46;;;;;;;18.40;13.32;;;;;;;;;;4982748;28;20393;-37
2021/10/01 08:23:11;;;;;;;14.80;10.90;;;;;;;;;;4981805;28;20027;-41
2021/10/01 08:25:38;;;;;;;12.45;8.23;;;;;;;;;;4981270;28;20033;-37
2021/10/01 08:28:03;;;;;;;13.52;6.45;;;;;;;;;;4979988;28;20548;-38
2021/10/01 08:30:29;;;;;;;29.48;19.65;;;;;;;;;;4983011;28;20038;-38
2021/10/01 08:32:54;;;;;;;41.60;25.70;;;;;;;;;;4981889;28;20029;-40
2021/10/01 08:35:22;;;;;;;57.65;33.08;;;;;;;;;;4986999;28;20034;-38
2021/10/01 08:37:51;;;;;;;120.07;87.15;;;;;;;;;;4984580;28;20037;-38
2021/10/01 08:40:16;;;;;;;130.35;103.88;;;;;;;;;;4986630;28;20060;-38
2021/10/01 08:42:42;;;;;;;127.05;98.18;;;;;;;;;;4981698;28;20050;-37
2021/10/01 08:45:09;;;;;;;111.93;68.93;;;;;;;;;;4984838;28;20018;-38
2021/10/01 08:47:34;;;;;;;64.28;46.80;;;;;;;;;;4983747;28;20255;-38
2021/10/01 08:50:00;;;;;;;37.28;26.42;;;;;;;;;;4989135;28;20546;-38
2021/10/01 08:52:25;;;;;;;32.47;23.25;;;;;;;;;;4983717;28;20037;-38
2021/10/01 08:54:51;;;;;;;26.60;20.92;;;;;;;;;;4987152;28;20073;-39
2021/10/01 08:57:16;;;;;;;19.23;17.27;;;;;;;;;;4981748;28;20045;-40
2021/10/01 08:59:42;;;;;;;19.83;17.33;;;;;;;;;;4989775;28;20038;-41
2021/10/01 09:02:07;;;;;;;22.00;14.38;;;;;;;;;;4990680;28;20038;-38
2021/10/01 09:04:32;;;;;;;16.15;13.50;;;;;;;;;;4989718;28;20044;-38
2021/10/01 09:06:59;;;;;;;13.82;10.40;;;;;;;;;;4987605;28;20023;-37
2021/10/01 09:09:38;;;;;;;29.23;10.60;;;;;;;;;;4982367;28;20292;-39
2021/10/01 09:12:04;;;;;;;13.05;11.82;;;;;;;;;;4984714;28;20505;-39
2021/10/01 09:14:29;;;;;;;13.82;12.10;;;;;;;;;;4986467;28;20030;-36
2021/10/01 09:17:08;;;;;;;10.30;8.73;;;;;;;;;;4987757;28;20091;-37
2021/10/01 09:19:38;;;;;;;8.07;6.88;;;;;;;;;;4985406;28;20011;-38
2021/10/01 09:22:03;;;;;;;9.23;6.70;;;;;;;;;;4989777;28;20167;-42
2021/10/01 09:24:28;;;;;;;15.52;7.93;;;;;;;;;;4990138;28;20030;-36
2021/10/01 09:26:55;;;;;;;9.10;5.72;;;;;;;;;;4987616;28;20026;-38
2021/10/01 09:29:34;;;;;;;5.00;4.47;;;;;;;;;;4986302;28;20019;-36
2021/10/01 09:32:00;;;;;;;12.00;6.22;;;;;;;;;;4983782;28;20026;-37
2021/10/01 09:34:25;;;;;;;10.88;9.77;;;;;;;;;;4989372;28;20022;-38
2021/10/01 09:36:58;;;;;;;14.48;7.25;;;;;;;;;;4982315;28;20080;-40
2021/10/01 09:39:25;;;;;;;11.40;7.53;;;;;;;;;;4986445;28;20027;-39
2021/10/01 09:41:50;;;;;;;21.70;9.80;;;;;;;;;;4986548;28;20671;-38
2021/10/01 09:44:18;;;;;;;9.82;7.07;;;;;;;;;;4983090;28;20052;-37
2021/10/01 09:46:48;;;;;;;12.25;5.43;;;;;;;;;;4988601;28;20022;-38
2021/10/01 09:49:15;;;;;;;11.43;5.95;;;;;;;;;;4990889;28;20018;-38
2021/10/01 09:51:47;;;;;;;14.15;7.05;;;;;;;;;;4985537;28;20147;-37
2021/10/01 09:54:13;;;;;;;13.02;8.90;;;;;;;;;;4985126;28;20390;-37
2021/10/01 09:56:40;;;;;;;12.98;9.50;;;;;;;;;;4986989;28;20474;-45
2021/10/01 09:59:10;;;;;;;16.80;8.18;;;;;;;;;;4987372;28;20021;-39
2021/10/01 10:01:36;;;;;;;14.40;7.97;;;;;;;;;;4989488;28;20025;-39
2021/10/01 10:04:14;;;;;;;8.13;6.30;;;;;;;;;;4982399;28;20034;-37
2021/10/01 10:06:43;;;;;;;8.27;6.30;;;;;;;;;;4985835;28;20033;-38
2021/10/01 10:09:09;;;;;;;13.50;6.68;;;;;;;;;;4988928;28;20014;-39
2021/10/01 10:11:38;;;;;;;7.78;5.50;;;;;;;;;;4989125;28;20082;-39
2021/10/01 10:14:07;;;;;;;28.75;23.42;;;;;;;;;;4992127;28;20447;-39
2021/10/01 10:16:32;;;;;;;11.70;8.93;;;;;;;;;;4991589;28;20022;-37
2021/10/01 10:19:02;;;;;;;11.43;8.27;;;;;;;;;;4986838;28;20077;-37
2021/10/01 10:21:28;;;;;;;18.53;14.00;;;;;;;;;;4976805;28;20037;-39
2021/10/01 10:23:54;;;;;;;28.00;19.50;;;;;;;;;;4984763;28;20229;-41
2021/10/01 10:26:20;;;;;;;16.58;14.80;;;;;;;;;;4986062;28;20034;-40
2021/10/01 10:28:46;;;;;;;29.85;13.98;;;;;;;;;;4987162;28;20026;-38
2021/10/01 10:31:12;;;;;;;15.85;11.60;;;;;;;;;;4989205;28;20052;-39
2021/10/01 10:33:45;;;;;;;10.48;7.28;;;;;;;;;;4981208;28;20470;-40
2021/10/01 10:36:29;;;;;;;20.08;7.07;;;;;;;;;;4982838;28;20050;-38
2021/10/01 10:39:16;;;;;;;15.43;7.85;;;;;;;;;;4985848;28;20874;-41
2021/10/01 10:41:45;;;;;;;13.15;8.77;;;;;;;;;;4990566;28;20036;-41
2021/10/01 10:44:11;;;;;;;39.85;15.55;;;;;;;;;;4982925;28;20860;-38
2021/10/01 10:46:36;;;;;;;23.83;9.32;;;;;;;;;;4986031;28;20050;-37
2021/10/01 10:49:14;;;;;;;16.77;7.95;;;;;;;;;;4990183;28;20057;-37
2021/10/01 10:51:59;;;;;;;8.15;7.32;;;;;;;;;;4987844;28;20036;-37
2021/10/01 10:54:25;;;;;;;28.83;11.07;;;;;;;;;;4982993;28;20105;-37
2021/10/01 10:57:11;;;;;;;20.85;11.13;;;;;;;;;;4987563;28;20022;-37
2021/10/01 10:59:36;;;;;;;6.90;6.28;;;;;;;;;;4979635;28;20042;-41
2021/10/01 11:02:24;;;;;;;8.50;6.40;;;;;;;;;;4987347;28;20037;-37
2021/10/01 11:04:50;;;;;;;8.48;6.10;;;;;;;;;;4981957;28;20050;-37
2021/10/01 11:07:34;;;;;;;17.13;5.18;;;;;;;;;;4982634;28;20129;-37
2021/10/01 11:10:18;;;;;;;7.35;6.32;;;;;;;;;;4985782;28;20014;-38
2021/10/01 11:12:43;;;;;;;7.80;5.35;;;;;;;;;;4985133;28;20061;-42
2021/10/01 11:15:15;;;;;;;8.10;7.30;;;;;;;;;;4983714;28;20738;-38
2021/10/01 11:17:41;;;;;;;8.85;7.90;;;;;;;;;;4976334;28;20758;-37
2021/10/01 11:20:06;;;;;;;6.85;6.22;;;;;;;;;;4984247;28;20033;-37
2021/10/01 11:22:34;;;;;;;10.27;8.50;;;;;;;;;;4987293;28;20636;-37
2021/10/01 11:25:12;;;;;;;7.80;6.95;;;;;;;;;;4985571;28;20027;-38
2021/10/01 11:27:54;;;;;;;7.32;6.22;;;;;;;;;;4981679;28;20324;-38
2021/10/01 11:30:20;;;;;;;10.88;7.45;;;;;;;;;;4986945;28;20026;-37
2021/10/01 11:32:45;;;;;;;6.40;5.80;;;;;;;;;;4987935;28;20026;-37
2021/10/01 11:35:11;;;;;;;7.15;6.35;;;;;;;;;;4989575;28;20030;-37
2021/10/01 11:37:38;;;;;;;6.65;5.75;;;;;;;;;;4987500;28;20037;-40
2021/10/01 11:40:08;;;;;;;6.70;5.38;;;;;;;;;;4987342;28;20034;-38
2021/10/01 11:42:36;;;;;;;8.60;7.80;;;;;;;;;;4986174;28;20521;-44
2021/10/01 11:45:07;;;;;;;8.57;6.65;;;;;;;;;;4980794;28;20125;-39
2021/10/01 11:47:32;;;;;;;6.15;5.55;;;;;;;;;;4984378;28;20046;-38
2021/10/01 11:49:58;;;;;;;18.77;13.43;;;;;;;;;;4984530;28;20467;-39
2021/10/01 11:52:25;;;;;;;26.33;18.33;;;;;;;;;;4988920;28;20030;-41
2021/10/01 11:54:52;;;;;;;13.90;8.82;;;;;;;;;;4986493;28;20037;-38
2021/10/01 11:57:17;;;;;;;12.63;6.75;;;;;;;;;;4982774;28;20060;-38
2021/10/01 11:59:51;;;;;;;7.63;6.65;;;;;;;;;;4985470;28;20114;-38
2021/10/01 12:02:37;;;;;;;11.05;7.45;;;;;;;;;;4982881;28;20076;-38
2021/10/01 12:05:21;;;;;;;6.90;6.22;;;;;;;;;;4986199;28;20094;-38
2021/10/01 12:07:48;;;;;;;8.68;7.78;;;;;;;;;;4982496;28;20038;-37
2021/10/01 12:10:13;;;;;;;7.40;6.20;;;;;;;;;;4987328;28;20022;-38
2021/10/01 12:12:57;;;;;;;6.88;6.18;;;;;;;;;;4978008;28;20053;-38
2021/10/01 12:15:42;;;;;;;9.68;6.30;;;;;;;;;;4986055;28;20048;-39
2021/10/01 12:18:25;;;;;;;8.48;7.65;;;;;;;;;;4987337;28;20030;-37
2021/10/01 12:20:50;;;;;;;7.85;5.97;;;;;;;;;;4986979;28;20035;-38
2021/10/01 12:23:17;;;;;;;10.48;6.63;;;;;;;;;;4986577;28;20107;-37
2021/10/01 12:25:42;;;;;;;6.13;5.40;;;;;;;;;;4984551;28;20045;-37
2021/10/01 12:28:08;;;;;;;9.57;8.73;;;;;;;;;;4990174;28;20475;-39
2021/10/01 12:30:34;;;;;;;7.53;6.72;;;;;;;;;;4990463;28;20032;-37
2021/10/01 12:32:59;;;;;;;8.52;7.07;;;;;;;;;;4987796;28;20023;-39
2021/10/01 12:35:24;;;;;;;9.20;5.40;;;;;;;;;;4988979;28;20030;-37
2021/10/01 12:37:50;;;;;;;8.27;5.68;;;;;;;;;;4991725;28;20554;-37
2021/10/01 12:40:15;;;;;;;10.25;6.03;;;;;;;;;;4986242;28;20033;-37
2021/10/01 12:42:40;;;;;;;10.38;5.65;;;;;;;;;;4985854;28;20069;-37
2021/10/01 12:45:06;;;;;;;5.00;4.60;;;;;;;;;;4987310;28;20058;-37
2021/10/01 12:47:35;;;;;;;8.68;6.20;;;;;;;;;;4987280;28;20747;-37
2021/10/01 12:50:01;;;;;;;6.32;5.72;;;;;;;;;;4989062;28;20518;-38
2021/10/01 12:52:27;;;;;;;8.27;6.47;;;;;;;;;;4990465;28;20030;-36
2021/10/01 12:54:55;;;;;;;7.97;6.28;;;;;;;;;;4989770;28;20724;-37
2021/10/01 12:57:23;;;;;;;9.52;6.70;;;;;;;;;;4985151;28;20113;-42
2021/10/01 13:00:04;;;;;;;7.60;6.18;;;;;;;;;;4981104;28;20031;-37
2021/10/01 13:02:35;;;;;;;11.43;8.75;;;;;;;;;;4986993;28;20481;-37
2021/10/01 13:05:05;;;;;;;9.65;7.50;;;;;;;;;;4987191;28;20027;-40
2021/10/01 13:07:40;;;;;;;32.97;29.93;;;;;;;;;;4990009;28;20031;-38
2021/10/01 13:10:14;;;;;;;15.05;11.65;;;;;;;;;;4980352;28;20027;-37
2021/10/01 13:12:51;;;;;;;21.15;9.57;;;;;;;;;;4985808;28;20224;-37
2021/10/01 13:15:30;;;;;;;7.53;6.82;;;;;;;;;;4988227;28;20022;-39
2021/10/01 13:18:00;;;;;;;7.13;6.43;;;;;;;;;;4986805;28;20494;-40
2021/10/01 13:20:26;;;;;;;10.55;9.50;;;;;;;;;;4990007;28;20037;-37
2021/10/01 13:22:55;;;;;;;10.05;8.82;;;;;;;;;;4988179;28;20025;-39
2021/10/01 13:25:25;;;;;;;10.10;9.10;;;;;;;;;;4985637;28;20018;-38
2021/10/01 13:27:51;;;;;;;13.27;10.50;;;;;;;;;;4987929;28;20053;-39
2021/10/01 13:30:17;;;;;;;13.52;11.15;;;;;;;;;;4982727;28;20391;-38
2021/10/01 13:32:42;;;;;;;12.55;10.07;;;;;;;;;;4987763;28;20074;-40
2021/10/01 13:35:07;;;;;;;11.00;10.00;;;;;;;;;;4989774;28;20041;-37
2021/10/01 13:37:33;;;;;;;14.85;11.45;;;;;;;;;;4986000;28;20562;-39
2021/10/01 13:39:59;;;;;;;10.43;9.52;;;;;;;;;;4987912;28;20489;-36
2021/10/01 13:42:27;;;;;;;12.18;10.80;;;;;;;;;;4979297;28;20084;-38
2021/10/01 13:44:52;;;;;;;12.63;11.48;;;;;;;;;;4987096;28;20032;-37
2021/10/01 13:47:17;;;;;;;14.98;12.05;;;;;;;;;;4987458;28;20026;-38
2021/10/01 13:49:43;;;;;;;14.95;13.15;;;;;;;;;;4984802;28;20917;-37
2021/10/01 13:52:08;;;;;;;14.10;12.73;;;;;;;;;;4987633;28;20034;-37
2021/10/01 13:54:33;;;;;;;12.75;11.52;;;;;;;;;;4981709;28;20043;-39
2021/10/01 13:56:59;;;;;;;12.82;11.52;;;;;;;;;;4987601;28;20022;-42
2021/10/01 13:59:24;;;;;;;14.40;13.05;;;;;;;;;;4987356;28;20052;-39
2021/10/01 14:01:49;;;;;;;15.77;13.23;;;;;;;;;;4984780;28;20119;-39
2021/10/01 14:04:14;;;;;;;12.90;11.65;;;;;;;;;;4987110;28;20023;-41
2021/10/01 14:06:40;;;;;;;20.88;13.52;;;;;;;;;;4986135;28;20102;-42
2021/10/01 14:09:05;;;;;;;14.98;13.48;;;;;;;;;;4988394;28;20667;-37
2021/10/01 14:11:30;;;;;;;12.55;10.93;;;;;;;;;;4983242;28;20249;-39
2021/10/01 14:13:57;;;;;;;13.88;12.43;;;;;;;;;;4990384;28;20555;-40
2021/10/01 14:16:22;;;;;;;17.42;10.73;;;;;;;;;;4983101;28;20350;-40
2021/10/01 14:18:48;;;;;;;11.30;10.05;;;;;;;;;;4992242;28;20503;-38
2021/10/01 14:21:13;;;;;;;15.60;10.23;;;;;;;;;;4986327;28;20037;-37
2021/10/01 14:23:39;;;;;;;9.93;9.00;;;;;;;;;;4985045;28;20087;-38
2021/10/01 14:26:04;;;;;;;16.30;10.68;;;;;;;;;;4984683;28;20033;-37
2021/10/01 14:28:29;;;;;;;15.40;12.23;;;;;;;;;;4983118;28;20026;-37
2021/10/01 14:30:54;;;;;;;13.27;12.07;;;;;;;;;;4987420;28;20036;-40
2021/10/01 14:33:20;;;;;;;17.20;13.07;;;;;;;;;;4986289;28;20027;-38
2021/10/01 14:35:45;;;;;;;17.73;14.68;;;;;;;;;;4988418;28;20050;-39
2021/10/01 14:38:11;;;;;;;14.68;13.35;;;;;;;;;;4982127;28;20027;-37
2021/10/01 14:40:41;;;;;;;16.13;14.48;;;;;;;;;;4983339;28;20057;-40
2021/10/01 14:43:06;;;;;;;17.92;16.05;;;;;;;;;;4985772;28;20506;-38
2021/10/01 14:45:31;;;;;;;15.35;13.90;;;;;;;;;;4983842;28;20068;-37
2021/10/01 14:47:57;;;;;;;17.08;12.65;;;;;;;;;;4985770;28;20017;-40
2021/10/01 14:50:22;;;;;;;16.67;12.50;;;;;;;;;;4984628;28;20028;-38
2021/10/01 14:52:47;;;;;;;19.02;13.23;;;;;;;;;;4988364;28;20113;-37
2021/10/01 14:55:13;;;;;;;17.65;13.88;;;;;;;;;;4984172;28;20044;-37
2021/10/01 14:57:38;;;;;;;13.35;12.00;;;;;;;;;;4986692;28;20083;-40
2021/10/01 15:00:04;;;;;;;16.42;14.07;;;;;;;;;;4986982;28;20563;-38
2021/10/01 15:02:30;;;;;;;14.05;12.90;;;;;;;;;;4985938;28;20057;-35
2021/10/01 15:04:55;;;;;;;13.73;12.35;;;;;;;;;;4984852;28;20109;-39
2021/10/01 15:07:20;;;;;;;19.73;14.32;;;;;;;;;;4990562;28;20481;-35
2021/10/01 15:09:46;;;;;;;15.00;12.77;;;;;;;;;;4986616;28;20028;-37
2021/10/01 15:12:11;;;;;;;18.20;16.33;;;;;;;;;;4983930;28;20109;-37
2021/10/01 15:14:36;;;;;;;17.90;16.08;;;;;;;;;;4987516;28;20264;-36
2021/10/01 15:17:02;;;;;;;16.38;14.13;;;;;;;;;;4988232;28;20026;-37
2021/10/01 15:19:27;;;;;;;15.85;13.27;;;;;;;;;;4986025;28;20050;-40
2021/10/01 15:21:53;;;;;;;14.23;12.80;;;;;;;;;;4985150;28;20057;-38
2021/10/01 15:24:18;;;;;;;15.23;11.38;;;;;;;;;;4979405;28;20545;-37
2021/10/01 15:26:44;;;;;;;18.05;12.63;;;;;;;;;;4981082;28;20049;-38
2021/10/01 15:29:09;;;;;;;16.33;14.43;;;;;;;;;;4985268;28;20489;-41
2021/10/01 15:31:34;;;;;;;17.80;15.23;;;;;;;;;;4989973;28;20079;-39
2021/10/01 15:34:00;;;;;;;15.18;13.55;;;;;;;;;;4985129;28;20049;-42
2021/10/01 15:36:25;;;;;;;14.90;12.50;;;;;;;;;;4985489;28;20036;-41
2021/10/01 15:38:51;;;;;;;10.27;9.23;;;;;;;;;;4992463;28;20032;-38
2021/10/01 15:41:17;;;;;;;11.32;9.75;;;;;;;;;;4985576;28;20676;-39
2021/10/01 15:43:42;;;;;;;12.95;11.60;;;;;;;;;;4981389;28;20123;-38
2021/10/01 15:46:08;;;;;;;11.48;10.32;;;;;;;;;;4985192;28;20014;-40
2021/10/01 15:48:33;;;;;;;12.77;9.98;;;;;;;;;;4982003;28;20811;-38
2021/10/01 15:50:59;;;;;;;14.88;9.93;;;;;;;;;;4982519;28;20028;-37
2021/10/01 15:53:25;;;;;;;16.63;10.45;;;;;;;;;;4987096;28;20028;-37
2021/10/01 15:55:50;;;;;;;11.70;10.63;;;;;;;;;;4978538;28;20023;-40
2021/10/01 15:58:16;;;;;;;16.48;13.68;;;;;;;;;;4984288;28;20034;-37
2021/10/01 16:00:43;;;;;;;12.43;11.23;;;;;;;;;;4986825;28;20057;-37
2021/10/01 16:03:09;;;;;;;14.57;12.35;;;;;;;;;;4983474;28;20029;-39
2021/10/01 16:05:35;;;;;;;13.23;12.00;;;;;;;;;;4987230;28;20026;-36
2021/10/01 16:08:01;;;;;;;16.17;14.48;;;;;;;;;;4983376;28;20083;-37
2021/10/01 16:10:27;;;;;;;17.35;12.10;;;;;;;;;;4983211;28;20030;-39